sensor_id;sensor_type;location;lat;lon;timestamp;pressure;altitude;pressure_sealevel;temperature;humidity
68169;BME280;54981;50.206;15.978;2023-04-30T14:40:12;99145.56;;;15.89;61.42
68169;BME280;54981;50.206;15.978;2023-04-30T14:42:43;99138.19;;;15.80;54.62
68169;BME280;54981;50.206;15.978;2023-04-30T14:45:14;99140.53;;;15.85;57.02
68169;BME280;54981;50.206;15.978;2023-04-30T14:47:44;99132.66;;;15.94;57.60
68169;BME280;54981;50.206;15.978;2023-04-30T14:50:15;99131.38;;;16.00;61.29
68169;BME280;54981;50.206;15.978;2023-04-30T14:52:45;99131.81;;;15.94;56.83
68169;BME280;54981;50.206;15.978;2023-04-30T14:55:16;99132.63;;;15.83;58.60
68169;BME280;54981;50.206;15.978;2023-04-30T14:57:46;99131.63;;;15.84;54.94
68169;BME280;54981;50.206;15.978;2023-04-30T15:00:17;99126.03;;;15.87;55.38
68169;BME280;54981;50.206;15.978;2023-04-30T15:02:47;99126.56;;;15.92;56.00
68169;BME280;54981;50.206;15.978;2023-04-30T15:05:17;99126.56;;;15.92;58.01
68169;BME280;54981;50.206;15.978;2023-04-30T15:07:48;99138.69;;;15.98;58.04
68169;BME280;54981;50.206;15.978;2023-04-30T15:10:18;99139.41;;;15.76;52.99
68169;BME280;54981;50.206;15.978;2023-04-30T15:12:49;99125.06;;;15.88;56.24
68169;BME280;54981;50.206;15.978;2023-04-30T15:15:19;99132.16;;;15.89;55.39
68169;BME280;54981;50.206;15.978;2023-04-30T15:17:57;99123.25;;;15.89;58.77
68169;BME280;54981;50.206;15.978;2023-04-30T15:20:28;99126.03;;;15.87;57.42
68169;BME280;54981;50.206;15.978;2023-04-30T15:22:58;99130.72;;;15.96;54.57
68169;BME280;54981;50.206;15.978;2023-04-30T15:25:29;99125.97;;;15.76;51.44
68169;BME280;54981;50.206;15.978;2023-04-30T15:28:00;99127.34;;;15.82;49.62
68169;BME280;54981;50.206;15.978;2023-04-30T15:30:31;99121.75;;;15.85;52.19
68169;BME280;54981;50.206;15.978;2023-04-30T15:33:04;99120.66;;;15.87;52.46
68169;BME280;54981;50.206;15.978;2023-04-30T15:35:34;99124.31;;;15.86;53.49
68169;BME280;54981;50.206;15.978;2023-04-30T15:38:05;99121.34;;;15.65;52.04
68169;BME280;54981;50.206;15.978;2023-04-30T15:40:35;99129.09;;;15.70;54.19
68169;BME280;54981;50.206;15.978;2023-04-30T15:43:06;99131.00;;;15.68;51.87
68169;BME280;54981;50.206;15.978;2023-04-30T15:45:37;99121.34;;;15.65;52.96
68169;BME280;54981;50.206;15.978;2023-04-30T15:48:07;99129.97;;;15.58;52.86
68169;BME280;54981;50.206;15.978;2023-04-30T15:50:38;99132.97;;;15.66;51.45
68169;BME280;54981;50.206;15.978;2023-04-30T15:53:08;99129.09;;;15.70;53.96
68169;BME280;54981;50.206;15.978;2023-04-30T15:55:38;99125.88;;;15.65;52.47
68169;BME280;54981;50.206;15.978;2023-04-30T15:58:09;99122.38;;;15.51;49.92
68169;BME280;54981;50.206;15.978;2023-04-30T16:00:39;99125.69;;;15.55;52.07
68169;BME280;54981;50.206;15.978;2023-04-30T16:03:10;99120.13;;;15.45;54.09
68169;BME280;54981;50.206;15.978;2023-04-30T16:05:40;99132.88;;;15.54;54.20
68169;BME280;54981;50.206;15.978;2023-04-30T16:08:11;99125.25;;;15.48;51.71
68169;BME280;54981;50.206;15.978;2023-04-30T16:10:42;99124.97;;;15.40;50.61
68169;BME280;54981;50.206;15.978;2023-04-30T16:13:12;99112.88;;;15.34;51.43
68169;BME280;54981;50.206;15.978;2023-04-30T16:15:43;99115.41;;;15.36;50.67
68169;BME280;54981;50.206;15.978;2023-04-30T16:18:13;99112.81;;;15.47;51.59
68169;BME280;54981;50.206;15.978;2023-04-30T16:20:44;99113.47;;;15.38;49.55
68169;BME280;54981;50.206;15.978;2023-04-30T16:23:17;99121.88;;;15.33;50.38
68169;BME280;54981;50.206;15.978;2023-04-30T16:25:47;99118.63;;;15.41;51.74
68169;BME280;54981;50.206;15.978;2023-04-30T16:28:17;99117.34;;;15.34;53.20
68169;BME280;54981;50.206;15.978;2023-04-30T16:30:48;99111.47;;;15.29;50.18
68169;BME280;54981;50.206;15.978;2023-04-30T16:33:18;99115.88;;;15.30;52.92
68169;BME280;54981;50.206;15.978;2023-04-30T16:35:50;99116.66;;;15.06;52.47
68169;BME280;54981;50.206;15.978;2023-04-30T16:38:21;99118.56;;;15.04;53.06
68169;BME280;54981;50.206;15.978;2023-04-30T16:40:52;99125.22;;;14.86;54.59
68169;BME280;54981;50.206;15.978;2023-04-30T16:43:23;99121.06;;;14.82;52.86
68169;BME280;54981;50.206;15.978;2023-04-30T16:45:53;99125.13;;;14.75;53.19
68169;BME280;54981;50.206;15.978;2023-04-30T16:48:23;99113.53;;;14.74;51.97
68169;BME280;54981;50.206;15.978;2023-04-30T16:50:54;99116.63;;;14.55;55.51
68169;BME280;54981;50.206;15.978;2023-04-30T16:53:24;99112.41;;;14.51;54.87
68169;BME280;54981;50.206;15.978;2023-04-30T16:55:54;99117.50;;;14.28;54.59
68169;BME280;54981;50.206;15.978;2023-04-30T16:58:25;99116.38;;;14.05;57.55
68169;BME280;54981;50.206;15.978;2023-04-30T17:00:55;99116.97;;;13.96;58.91
68169;BME280;54981;50.206;15.978;2023-04-30T17:03:26;99117.84;;;13.97;56.53
68169;BME280;54981;50.206;15.978;2023-04-30T17:05:56;99112.69;;;13.94;57.91
68169;BME280;54981;50.206;15.978;2023-04-30T17:08:26;99110.63;;;13.84;58.15
68169;BME280;54981;50.206;15.978;2023-04-30T17:10:57;99109.31;;;13.77;58.57
68169;BME280;54981;50.206;15.978;2023-04-30T17:13:27;99111.34;;;13.74;61.82
68169;BME280;54981;50.206;15.978;2023-04-30T17:16:01;99104.09;;;13.89;61.07
68169;BME280;54981;50.206;15.978;2023-04-30T17:18:31;99108.91;;;13.83;60.42
68169;BME280;54981;50.206;15.978;2023-04-30T17:21:01;99116.94;;;13.83;63.36
68169;BME280;54981;50.206;15.978;2023-04-30T17:23:32;99116.22;;;13.67;65.15
68169;BME280;54981;50.206;15.978;2023-04-30T17:26:02;99119.91;;;13.52;62.52
68169;BME280;54981;50.206;15.978;2023-04-30T17:28:33;99119.13;;;13.50;62.61
68169;BME280;54981;50.206;15.978;2023-04-30T17:31:03;99117.03;;;13.40;64.26
68169;BME280;54981;50.206;15.978;2023-04-30T17:33:36;99118.16;;;13.22;66.19
68169;BME280;54981;50.206;15.978;2023-04-30T17:36:07;99122.94;;;13.03;71.19
68169;BME280;54981;50.206;15.978;2023-04-30T17:38:37;99129.34;;;13.14;70.18
68169;BME280;54981;50.206;15.978;2023-04-30T17:41:08;99124.84;;;13.15;68.41
68169;BME280;54981;50.206;15.978;2023-04-30T17:43:38;99130.75;;;13.20;69.89
68169;BME280;54981;50.206;15.978;2023-04-30T17:46:09;99137.72;;;13.08;73.82
68169;BME280;54981;50.206;15.978;2023-04-30T17:48:39;99143.56;;;13.00;75.90
68169;BME280;54981;50.206;15.978;2023-04-30T17:51:12;99146.13;;;12.88;77.54
68169;BME280;54981;50.206;15.978;2023-04-30T17:53:43;99137.81;;;12.78;73.14
68169;BME280;54981;50.206;15.978;2023-04-30T17:56:13;99143.22;;;12.62;78.42
68169;BME280;54981;50.206;15.978;2023-04-30T17:58:44;99140.09;;;12.84;71.60
68169;BME280;54981;50.206;15.978;2023-04-30T18:01:14;99151.78;;;12.53;83.68
68169;BME280;54981;50.206;15.978;2023-04-30T18:03:45;99148.72;;;12.45;83.12
68169;BME280;54981;50.206;15.978;2023-04-30T18:06:15;99154.22;;;12.27;80.91
68169;BME280;54981;50.206;15.978;2023-04-30T18:08:45;99154.03;;;12.14;78.60
68169;BME280;54981;50.206;15.978;2023-04-30T18:11:16;99159.50;;;11.97;81.49
68169;BME280;54981;50.206;15.978;2023-04-30T18:13:46;99162.34;;;11.94;85.66
68169;BME280;54981;50.206;15.978;2023-04-30T18:16:17;99164.25;;;11.92;82.27
68169;BME280;54981;50.206;15.978;2023-04-30T18:18:47;99167.50;;;11.97;83.96
68169;BME280;54981;50.206;15.978;2023-04-30T18:21:17;99164.66;;;11.84;85.07
68169;BME280;54981;50.206;15.978;2023-04-30T18:23:48;99167.56;;;11.80;97.54
68169;BME280;54981;50.206;15.978;2023-04-30T18:26:21;99170.06;;;11.67;100.00
68169;BME280;54981;50.206;15.978;2023-04-30T18:28:53;99165.94;;;11.61;100.00
68169;BME280;54981;50.206;15.978;2023-04-30T18:31:24;99164.78;;;11.49;100.00
68169;BME280;54981;50.206;15.978;2023-04-30T18:33:55;99168.00;;;11.40;100.00
68169;BME280;54981;50.206;15.978;2023-04-30T18:36:25;99176.06;;;11.39;100.00
68169;BME280;54981;50.206;15.978;2023-04-30T18:38:56;99177.28;;;11.16;100.00
68169;BME280;54981;50.206;15.978;2023-04-30T18:41:26;99182.66;;;10.98;100.00
68169;BME280;54981;50.206;15.978;2023-04-30T18:43:56;99185.03;;;10.87;100.00
68169;BME280;54981;50.206;15.978;2023-04-30T18:46:27;99187.31;;;10.77;100.00
68169;BME280;54981;50.206;15.978;2023-04-30T18:48:57;99187.81;;;10.68;100.00
68169;BME280;54981;50.206;15.978;2023-04-30T18:51:27;99195.16;;;10.63;100.00
68169;BME280;54981;50.206;15.978;2023-04-30T18:53:58;99191.25;;;10.53;100.00
68169;BME280;54981;50.206;15.978;2023-04-30T18:56:29;99202.50;;;10.40;100.00
68169;BME280;54981;50.206;15.978;2023-04-30T18:58:59;99201.50;;;10.24;100.00
68169;BME280;54981;50.206;15.978;2023-04-30T19:01:29;99197.44;;;10.17;100.00
68169;BME280;54981;50.206;15.978;2023-04-30T19:04:00;99209.94;;;10.15;100.00
68169;BME280;54981;50.206;15.978;2023-04-30T19:06:32;99211.66;;;9.98;100.00
68169;BME280;54981;50.206;15.978;2023-04-30T19:09:03;99216.56;;;9.70;100.00
68169;BME280;54981;50.206;15.978;2023-04-30T19:11:34;99222.66;;;9.53;100.00
68169;BME280;54981;50.206;15.978;2023-04-30T19:14:05;99223.03;;;9.25;100.00
68169;BME280;54981;50.206;15.978;2023-04-30T19:16:35;99226.25;;;9.12;100.00
68169;BME280;54981;50.206;15.978;2023-04-30T19:19:06;99228.09;;;9.10;100.00
68169;BME280;54981;50.206;15.978;2023-04-30T19:21:36;99229.91;;;9.10;100.00
68169;BME280;54981;50.206;15.978;2023-04-30T19:24:06;99235.56;;;9.02;100.00
68169;BME280;54981;50.206;15.978;2023-04-30T19:26:37;99238.06;;;8.85;100.00
68169;BME280;54981;50.206;15.978;2023-04-30T19:29:07;99239.16;;;8.81;100.00
68169;BME280;54981;50.206;15.978;2023-04-30T19:31:37;99238.88;;;8.66;100.00
68169;BME280;54981;50.206;15.978;2023-04-30T19:34:08;99242.34;;;8.46;100.00
68169;BME280;54981;50.206;15.978;2023-04-30T19:36:39;99249.78;;;8.37;100.00
68169;BME280;54981;50.206;15.978;2023-04-30T19:39:10;99241.34;;;8.27;100.00
68169;BME280;54981;50.206;15.978;2023-04-30T19:41:41;99248.44;;;8.26;100.00
68169;BME280;54981;50.206;15.978;2023-04-30T19:44:11;99254.97;;;8.18;100.00
68169;BME280;54981;50.206;15.978;2023-04-30T19:46:42;99253.31;;;8.15;100.00
68169;BME280;54981;50.206;15.978;2023-04-30T19:49:12;99259.59;;;8.13;100.00
68169;BME280;54981;50.206;15.978;2023-04-30T19:51:43;99260.84;;;8.04;100.00
68169;BME280;54981;50.206;15.978;2023-04-30T19:54:16;99261.84;;;8.01;100.00
68169;BME280;54981;50.206;15.978;2023-04-30T19:56:47;99262.94;;;7.96;100.00
68169;BME280;54981;50.206;15.978;2023-04-30T19:59:17;99257.63;;;7.96;100.00
68169;BME280;54981;50.206;15.978;2023-04-30T20:01:48;99264.72;;;7.95;100.00
68169;BME280;54981;50.206;15.978;2023-04-30T20:04:18;99265.75;;;7.91;100.00
68169;BME280;54981;50.206;15.978;2023-04-30T20:06:49;99271.00;;;7.93;100.00
68169;BME280;54981;50.206;15.978;2023-04-30T20:09:25;99277.13;;;7.95;100.00
68169;BME280;54981;50.206;15.978;2023-04-30T20:11:56;99274.41;;;7.96;100.00
68169;BME280;54981;50.206;15.978;2023-04-30T20:14:26;99273.63;;;7.94;100.00
68169;BME280;54981;50.206;15.978;2023-04-30T20:16:57;99272.50;;;7.76;100.00
68169;BME280;54981;50.206;15.978;2023-04-30T20:19:27;99270.47;;;7.61;100.00
68169;BME280;54981;50.206;15.978;2023-04-30T20:21:58;99275.06;;;7.56;100.00
68169;BME280;54981;50.206;15.978;2023-04-30T20:24:28;99278.22;;;7.42;100.00
68169;BME280;54981;50.206;15.978;2023-04-30T20:26:58;99275.16;;;7.29;100.00
68169;BME280;54981;50.206;15.978;2023-04-30T20:29:29;99281.06;;;7.12;100.00
68169;BME280;54981;50.206;15.978;2023-04-30T20:31:59;99280.41;;;7.06;100.00
68169;BME280;54981;50.206;15.978;2023-04-30T20:34:29;99285.00;;;7.00;100.00
68169;BME280;54981;50.206;15.978;2023-04-30T20:37:01;99279.91;;;6.94;100.00
68169;BME280;54981;50.206;15.978;2023-04-30T20:39:37;99279.88;;;6.96;100.00
68169;BME280;54981;50.206;15.978;2023-04-30T20:42:08;99281.16;;;6.84;100.00
68169;BME280;54981;50.206;15.978;2023-04-30T20:44:38;99280.31;;;6.83;100.00
68169;BME280;54981;50.206;15.978;2023-04-30T20:47:09;99284.66;;;6.85;100.00
68169;BME280;54981;50.206;15.978;2023-04-30T20:49:41;99278.31;;;6.64;100.00
68169;BME280;54981;50.206;15.978;2023-04-30T20:52:12;99278.63;;;6.54;100.00
68169;BME280;54981;50.206;15.978;2023-04-30T20:54:43;99283.16;;;6.51;100.00
68169;BME280;54981;50.206;15.978;2023-04-30T20:57:13;99284.22;;;6.45;100.00
68169;BME280;54981;50.206;15.978;2023-04-30T20:59:44;99283.53;;;6.40;100.00
68169;BME280;54981;50.206;15.978;2023-04-30T21:02:14;99281.88;;;6.36;100.00
68169;BME280;54981;50.206;15.978;2023-04-30T21:04:45;99285.19;;;6.43;100.00
68169;BME280;54981;50.206;15.978;2023-04-30T21:07:15;99280.66;;;6.46;100.00
68169;BME280;54981;50.206;15.978;2023-04-30T21:09:46;99286.75;;;6.48;100.00
68169;BME280;54981;50.206;15.978;2023-04-30T21:12:17;99288.31;;;6.27;100.00
68169;BME280;54981;50.206;15.978;2023-04-30T21:14:47;99291.25;;;6.18;100.00
68169;BME280;54981;50.206;15.978;2023-04-30T21:17:18;99278.84;;;5.92;100.00
68169;BME280;54981;50.206;15.978;2023-04-30T21:19:48;99281.53;;;5.89;100.00
68169;BME280;54981;50.206;15.978;2023-04-30T21:22:18;99280.72;;;5.87;100.00
68169;BME280;54981;50.206;15.978;2023-04-30T21:24:53;99282.66;;;5.82;100.00
68169;BME280;54981;50.206;15.978;2023-04-30T21:27:23;99276.63;;;5.76;100.00
68169;BME280;54981;50.206;15.978;2023-04-30T21:29:54;99285.34;;;5.80;100.00
68169;BME280;54981;50.206;15.978;2023-04-30T21:32:24;99283.34;;;5.88;100.00
68169;BME280;54981;50.206;15.978;2023-04-30T21:34:54;99286.94;;;5.86;100.00
68169;BME280;54981;50.206;15.978;2023-04-30T21:37:25;99287.41;;;5.70;100.00
68169;BME280;54981;50.206;15.978;2023-04-30T21:39:55;99290.47;;;5.55;100.00
68169;BME280;54981;50.206;15.978;2023-04-30T21:42:26;99296.81;;;5.49;100.00
68169;BME280;54981;50.206;15.978;2023-04-30T21:44:56;99288.75;;;5.54;100.00
68169;BME280;54981;50.206;15.978;2023-04-30T21:47:26;99293.94;;;5.57;100.00
68169;BME280;54981;50.206;15.978;2023-04-30T21:49:57;99296.72;;;5.52;100.00
68169;BME280;54981;50.206;15.978;2023-04-30T21:52:28;99299.59;;;5.43;100.00
68169;BME280;54981;50.206;15.978;2023-04-30T21:54:58;99296.34;;;5.35;100.00
68169;BME280;54981;50.206;15.978;2023-04-30T21:57:29;99294.13;;;5.51;100.00
68169;BME280;54981;50.206;15.978;2023-04-30T22:00:00;99295.38;;;5.38;100.00
68169;BME280;54981;50.206;15.978;2023-04-30T22:02:30;99293.56;;;5.40;100.00
68169;BME280;54981;50.206;15.978;2023-04-30T22:05:01;99298.06;;;5.36;100.00
68169;BME280;54981;50.206;15.978;2023-04-30T22:07:33;99297.53;;;5.23;100.00
68169;BME280;54981;50.206;15.978;2023-04-30T22:10:04;99293.00;;;5.28;100.00
68169;BME280;54981;50.206;15.978;2023-04-30T22:12:35;99301.28;;;5.15;100.00
68169;BME280;54981;50.206;15.978;2023-04-30T22:15:06;99299.03;;;5.01;100.00
68169;BME280;54981;50.206;15.978;2023-04-30T22:17:37;99297.97;;;5.08;100.00
68169;BME280;54981;50.206;15.978;2023-04-30T22:20:07;99305.31;;;4.95;100.00
68169;BME280;54981;50.206;15.978;2023-04-30T22:22:39;99294.00;;;4.91;100.00
68169;BME280;54981;50.206;15.978;2023-04-30T22:25:09;99307.41;;;4.84;100.00
68169;BME280;54981;50.206;15.978;2023-04-30T22:27:39;99296.03;;;4.80;100.00
68169;BME280;54981;50.206;15.978;2023-04-30T22:30:10;99297.94;;;4.75;100.00
68169;BME280;54981;50.206;15.978;2023-04-30T22:32:40;99307.50;;;4.79;100.00
68169;BME280;54981;50.206;15.978;2023-04-30T22:35:13;99302.22;;;4.79;100.00
68169;BME280;54981;50.206;15.978;2023-04-30T22:37:45;99301.22;;;4.83;100.00
68169;BME280;54981;50.206;15.978;2023-04-30T22:40:15;99295.81;;;4.89;100.00
68169;BME280;54981;50.206;15.978;2023-04-30T22:42:47;99304.31;;;4.66;100.00
68169;BME280;54981;50.206;15.978;2023-04-30T22:45:17;99304.47;;;4.60;100.00
68169;BME280;54981;50.206;15.978;2023-04-30T22:47:48;99295.75;;;4.57;100.00
68169;BME280;54981;50.206;15.978;2023-04-30T22:50:19;99292.53;;;4.45;100.00
68169;BME280;54981;50.206;15.978;2023-04-30T22:52:49;99296.94;;;4.45;100.00
68169;BME280;54981;50.206;15.978;2023-04-30T22:55:20;99296.81;;;4.49;100.00
68169;BME280;54981;50.206;15.978;2023-04-30T22:57:50;99298.66;;;4.47;100.00
68169;BME280;54981;50.206;15.978;2023-04-30T23:00:21;99295.88;;;4.52;100.00
68169;BME280;54981;50.206;15.978;2023-04-30T23:02:53;99292.44;;;4.48;100.00
68169;BME280;54981;50.206;15.978;2023-04-30T23:05:23;99295.09;;;4.48;100.00
68169;BME280;54981;50.206;15.978;2023-04-30T23:07:54;99291.69;;;4.43;100.00
68169;BME280;54981;50.206;15.978;2023-04-30T23:10:24;99294.00;;;4.20;100.00
68169;BME280;54981;50.206;15.978;2023-04-30T23:12:54;99291.47;;;4.15;100.00
68169;BME280;54981;50.206;15.978;2023-04-30T23:15:25;99294.22;;;4.11;100.00
68169;BME280;54981;50.206;15.978;2023-04-30T23:17:56;99294.38;;;4.04;100.00
68169;BME280;54981;50.206;15.978;2023-04-30T23:20:29;99299.69;;;4.03;100.00
68169;BME280;54981;50.206;15.978;2023-04-30T23:22:59;99306.38;;;3.77;100.00
68169;BME280;54981;50.206;15.978;2023-04-30T23:25:29;99307.56;;;3.62;100.00
68169;BME280;54981;50.206;15.978;2023-04-30T23:28:01;99294.88;;;3.83;100.00
68169;BME280;54981;50.206;15.978;2023-04-30T23:30:36;99296.78;;;3.75;100.00
68169;BME280;54981;50.206;15.978;2023-04-30T23:33:07;99288.00;;;3.76;100.00
68169;BME280;54981;50.206;15.978;2023-04-30T23:35:40;99286.47;;;3.66;100.00
68169;BME280;54981;50.206;15.978;2023-04-30T23:38:12;99283.84;;;3.66;100.00
68169;BME280;54981;50.206;15.978;2023-04-30T23:40:43;99285.75;;;3.57;100.00
68169;BME280;54981;50.206;15.978;2023-04-30T23:43:16;99283.09;;;3.57;100.00
68169;BME280;54981;50.206;15.978;2023-04-30T23:45:47;99274.44;;;3.52;100.00
68169;BME280;54981;50.206;15.978;2023-04-30T23:48:17;99278.72;;;3.58;100.00
68169;BME280;54981;50.206;15.978;2023-04-30T23:51:01;99282.91;;;3.67;100.00
68169;BME280;54981;50.206;15.978;2023-04-30T23:53:31;99281.13;;;3.69;100.00
68169;BME280;54981;50.206;15.978;2023-04-30T23:56:02;99280.28;;;3.67;100.00
68169;BME280;54981;50.206;15.978;2023-04-30T23:58:32;99280.22;;;3.70;100.00
